Terminal Aerodrome Forecast
Issued by NWS

Home | Current Version | Previous Version | Text Only | Print | Product List | Glossary On
Versions: 1 2 3 4 5 6 7 8 9 10 11 12 13 14 15
000
FTUS43 KIWX 122300
TAFSBN
TAF
KSBN 122337Z 1300/1324 18010KT P6SM SCT020 BKN070
     FM130500 24008KT 4SM TSRA SCT015 OVC025CB
      TEMPO 1306/1310 3SM TSRA SCT008 OVC012CB
     FM131000 26007KT P6SM VCSH SCT008 OVC015
     FM131500 29010KT P6SM SCT030=

USA.gov is the U.S. government's official web portal to all federal, state and local government web resources and services.